sensor_id;sensor_type;location;lat;lon;timestamp;pressure;altitude;pressure_sealevel;temperature;humidity
13869;BME280;7004;48.206;16.402;2023-04-26T00:01:02;99458.53;;;9.93;60.80
13869;BME280;7004;48.206;16.402;2023-04-26T00:03:34;99463.06;;;10.45;59.34
13869;BME280;7004;48.206;16.402;2023-04-26T00:06:06;99462.88;;;10.61;60.58
13869;BME280;7004;48.206;16.402;2023-04-26T00:08:37;99473.56;;;10.59;58.83
13869;BME280;7004;48.206;16.402;2023-04-26T00:11:07;99471.06;;;10.31;59.10
13869;BME280;7004;48.206;16.402;2023-04-26T00:13:35;99465.63;;;10.59;58.87
13869;BME280;7004;48.206;16.402;2023-04-26T00:16:06;99474.16;;;10.10;60.16
13869;BME280;7004;48.206;16.402;2023-04-26T00:18:37;99479.47;;;10.50;60.10
13869;BME280;7004;48.206;16.402;2023-04-26T00:21:12;99479.66;;;9.93;60.78
13869;BME280;7004;48.206;16.402;2023-04-26T00:23:45;99477.44;;;10.14;60.43
13869;BME280;7004;48.206;16.402;2023-04-26T00:26:13;99480.38;;;10.09;59.92
13869;BME280;7004;48.206;16.402;2023-04-26T00:28:44;99481.69;;;9.75;61.11
13869;BME280;7004;48.206;16.402;2023-04-26T00:31:15;99482.72;;;9.87;60.71
13869;BME280;7004;48.206;16.402;2023-04-26T00:33:43;99482.97;;;10.23;59.87
13869;BME280;7004;48.206;16.402;2023-04-26T00:36:14;99481.25;;;9.68;60.82
13869;BME280;7004;48.206;16.402;2023-04-26T00:38:47;99484.03;;;9.79;61.11
13869;BME280;7004;48.206;16.402;2023-04-26T00:41:18;99484.25;;;9.62;61.36
13869;BME280;7004;48.206;16.402;2023-04-26T00:43:50;99482.84;;;9.71;61.13
13869;BME280;7004;48.206;16.402;2023-04-26T00:46:20;99490.72;;;9.15;62.13
13869;BME280;7004;48.206;16.402;2023-04-26T00:48:50;99483.34;;;9.49;61.53
13869;BME280;7004;48.206;16.402;2023-04-26T00:51:21;99474.16;;;9.27;62.83
13869;BME280;7004;48.206;16.402;2023-04-26T00:53:48;99489.47;;;9.21;61.82
13869;BME280;7004;48.206;16.402;2023-04-26T00:56:19;99487.66;;;9.64;60.50
13869;BME280;7004;48.206;16.402;2023-04-26T00:58:49;99481.81;;;9.73;60.11
13869;BME280;7004;48.206;16.402;2023-04-26T01:01:16;99485.16;;;9.19;61.00
13869;BME280;7004;48.206;16.402;2023-04-26T01:03:46;99497.38;;;9.49;60.50
13869;BME280;7004;48.206;16.402;2023-04-26T01:06:13;99490.59;;;9.59;60.17
13869;BME280;7004;48.206;16.402;2023-04-26T01:08:39;99483.06;;;9.68;58.96
13869;BME280;7004;48.206;16.402;2023-04-26T01:11:06;99490.84;;;9.69;59.07
13869;BME280;7004;48.206;16.402;2023-04-26T01:13:33;99493.25;;;9.45;59.22
13869;BME280;7004;48.206;16.402;2023-04-26T01:16:01;99487.19;;;9.72;59.02
13869;BME280;7004;48.206;16.402;2023-04-26T01:18:28;99490.69;;;9.44;59.14
13869;BME280;7004;48.206;16.402;2023-04-26T01:20:55;99493.63;;;9.68;58.08
13869;BME280;7004;48.206;16.402;2023-04-26T01:23:22;99491.75;;;9.97;58.66
13869;BME280;7004;48.206;16.402;2023-04-26T01:25:50;99490.03;;;9.54;57.65
13869;BME280;7004;48.206;16.402;2023-04-26T01:28:17;99499.94;;;9.65;57.04
13869;BME280;7004;48.206;16.402;2023-04-26T01:30:43;99503.91;;;9.58;56.85
13869;BME280;7004;48.206;16.402;2023-04-26T01:33:09;99510.94;;;9.72;57.60
13869;BME280;7004;48.206;16.402;2023-04-26T01:35:35;99512.28;;;9.50;56.44
13869;BME280;7004;48.206;16.402;2023-04-26T01:38:02;99510.22;;;9.97;55.41
13869;BME280;7004;48.206;16.402;2023-04-26T01:40:29;99513.50;;;9.73;54.84
13869;BME280;7004;48.206;16.402;2023-04-26T01:42:55;99516.25;;;9.43;55.42
13869;BME280;7004;48.206;16.402;2023-04-26T01:45:24;99515.84;;;9.63;55.10
13869;BME280;7004;48.206;16.402;2023-04-26T01:47:50;99516.31;;;9.56;54.80
13869;BME280;7004;48.206;16.402;2023-04-26T01:50:16;99525.50;;;9.92;55.31
13869;BME280;7004;48.206;16.402;2023-04-26T01:52:42;99523.97;;;9.60;55.60
13869;BME280;7004;48.206;16.402;2023-04-26T01:55:08;99528.59;;;9.43;54.29
13869;BME280;7004;48.206;16.402;2023-04-26T01:57:35;99529.59;;;9.54;53.33
13869;BME280;7004;48.206;16.402;2023-04-26T02:00:01;99533.19;;;9.39;53.08
13869;BME280;7004;48.206;16.402;2023-04-26T02:02:28;99538.84;;;9.33;53.19
13869;BME280;7004;48.206;16.402;2023-04-26T02:04:54;99532.00;;;9.45;52.85
13869;BME280;7004;48.206;16.402;2023-04-26T02:07:20;99533.84;;;9.14;53.34
13869;BME280;7004;48.206;16.402;2023-04-26T02:09:46;99537.84;;;9.50;53.11
13869;BME280;7004;48.206;16.402;2023-04-26T02:12:12;99529.31;;;9.59;52.64
13869;BME280;7004;48.206;16.402;2023-04-26T02:14:39;99535.28;;;9.48;53.38
13869;BME280;7004;48.206;16.402;2023-04-26T02:17:05;99537.91;;;9.19;53.16
13869;BME280;7004;48.206;16.402;2023-04-26T02:19:31;99528.19;;;9.20;52.83
13869;BME280;7004;48.206;16.402;2023-04-26T02:21:58;99535.44;;;9.74;53.47
13869;BME280;7004;48.206;16.402;2023-04-26T02:24:25;99538.00;;;9.61;53.88
13869;BME280;7004;48.206;16.402;2023-04-26T02:26:51;99536.22;;;9.33;53.98
13869;BME280;7004;48.206;16.402;2023-04-26T02:29:19;99530.19;;;9.45;52.91
13869;BME280;7004;48.206;16.402;2023-04-26T02:31:46;99542.22;;;9.21;54.10
13869;BME280;7004;48.206;16.402;2023-04-26T02:34:13;99533.13;;;8.82;54.66
13869;BME280;7004;48.206;16.402;2023-04-26T02:36:39;99537.22;;;9.02;55.25
13869;BME280;7004;48.206;16.402;2023-04-26T02:39:05;99538.47;;;9.39;56.18
13869;BME280;7004;48.206;16.402;2023-04-26T02:41:32;99539.44;;;9.52;54.91
13869;BME280;7004;48.206;16.402;2023-04-26T02:43:58;99533.47;;;9.20;55.21
13869;BME280;7004;48.206;16.402;2023-04-26T02:46:24;99540.81;;;9.01;56.50
13869;BME280;7004;48.206;16.402;2023-04-26T02:48:50;99533.47;;;9.06;56.72
13869;BME280;7004;48.206;16.402;2023-04-26T02:51:16;99534.97;;;8.95;57.16
13869;BME280;7004;48.206;16.402;2023-04-26T02:53:43;99532.97;;;8.99;56.09
13869;BME280;7004;48.206;16.402;2023-04-26T02:56:09;99537.16;;;8.73;56.70
13869;BME280;7004;48.206;16.402;2023-04-26T02:58:36;99538.31;;;8.53;57.87
13869;BME280;7004;48.206;16.402;2023-04-26T03:01:02;99534.00;;;8.82;56.33
13869;BME280;7004;48.206;16.402;2023-04-26T03:03:32;99531.41;;;8.66;57.80
13869;BME280;7004;48.206;16.402;2023-04-26T03:05:58;99547.09;;;8.53;55.71
13869;BME280;7004;48.206;16.402;2023-04-26T03:08:24;99546.72;;;8.90;56.05
13869;BME280;7004;48.206;16.402;2023-04-26T03:10:50;99555.69;;;8.71;55.55
13869;BME280;7004;48.206;16.402;2023-04-26T03:13:16;99551.41;;;8.55;56.03
13869;BME280;7004;48.206;16.402;2023-04-26T03:15:46;99565.34;;;8.87;55.17
13869;BME280;7004;48.206;16.402;2023-04-26T03:18:12;99561.34;;;8.65;55.28
13869;BME280;7004;48.206;16.402;2023-04-26T03:20:38;99560.53;;;8.49;55.56
13869;BME280;7004;48.206;16.402;2023-04-26T03:23:04;99555.59;;;8.43;56.05
13869;BME280;7004;48.206;16.402;2023-04-26T03:25:31;99552.38;;;8.53;55.58
13869;BME280;7004;48.206;16.402;2023-04-26T03:27:57;99559.94;;;8.28;55.97
13869;BME280;7004;48.206;16.402;2023-04-26T03:30:24;99564.25;;;8.29;55.88
13869;BME280;7004;48.206;16.402;2023-04-26T03:32:51;99561.69;;;8.59;54.38
13869;BME280;7004;48.206;16.402;2023-04-26T03:35:17;99550.56;;;8.84;54.40
13869;BME280;7004;48.206;16.402;2023-04-26T03:37:44;99551.81;;;8.63;54.99
13869;BME280;7004;48.206;16.402;2023-04-26T03:40:10;99562.41;;;8.47;55.64
13869;BME280;7004;48.206;16.402;2023-04-26T03:42:37;99558.94;;;9.21;54.69
13869;BME280;7004;48.206;16.402;2023-04-26T03:45:04;99569.03;;;8.38;55.19
13869;BME280;7004;48.206;16.402;2023-04-26T03:47:30;99574.97;;;8.26;55.29
13869;BME280;7004;48.206;16.402;2023-04-26T03:49:57;99586.69;;;8.52;55.46
13869;BME280;7004;48.206;16.402;2023-04-26T03:52:23;99585.34;;;8.45;54.95
13869;BME280;7004;48.206;16.402;2023-04-26T03:54:49;99585.25;;;8.92;55.19
13869;BME280;7004;48.206;16.402;2023-04-26T03:57:15;99590.84;;;8.86;55.23
13869;BME280;7004;48.206;16.402;2023-04-26T03:59:42;99581.81;;;8.60;54.40
13869;BME280;7004;48.206;16.402;2023-04-26T04:02:08;99581.84;;;8.90;55.52
13869;BME280;7004;48.206;16.402;2023-04-26T04:04:34;99586.28;;;8.44;54.64
13869;BME280;7004;48.206;16.402;2023-04-26T04:07:00;99582.50;;;8.64;55.21
13869;BME280;7004;48.206;16.402;2023-04-26T04:09:28;99586.03;;;8.48;55.17
13869;BME280;7004;48.206;16.402;2023-04-26T04:11:54;99588.72;;;8.63;54.21
13869;BME280;7004;48.206;16.402;2023-04-26T04:14:20;99586.88;;;8.33;55.56
13869;BME280;7004;48.206;16.402;2023-04-26T04:16:48;99584.81;;;8.38;53.76
13869;BME280;7004;48.206;16.402;2023-04-26T04:19:14;99585.25;;;9.07;54.48
13869;BME280;7004;48.206;16.402;2023-04-26T04:21:40;99595.78;;;8.92;53.38
13869;BME280;7004;48.206;16.402;2023-04-26T04:24:08;99596.25;;;8.99;53.89
13869;BME280;7004;48.206;16.402;2023-04-26T04:26:34;99601.66;;;9.12;53.89
13869;BME280;7004;48.206;16.402;2023-04-26T04:29:00;99608.66;;;8.83;53.23
13869;BME280;7004;48.206;16.402;2023-04-26T04:31:35;99612.50;;;8.77;53.58
13869;BME280;7004;48.206;16.402;2023-04-26T04:34:01;99623.25;;;9.33;52.95
13869;BME280;7004;48.206;16.402;2023-04-26T04:36:27;99619.03;;;8.70;53.61
13869;BME280;7004;48.206;16.402;2023-04-26T04:38:53;99616.44;;;9.14;52.43
13869;BME280;7004;48.206;16.402;2023-04-26T04:41:19;99611.47;;;8.80;53.21
13869;BME280;7004;48.206;16.402;2023-04-26T04:43:47;99621.28;;;8.92;54.81
13869;BME280;7004;48.206;16.402;2023-04-26T04:46:13;99615.59;;;8.84;53.76
13869;BME280;7004;48.206;16.402;2023-04-26T04:48:41;99616.03;;;8.76;53.99
13869;BME280;7004;48.206;16.402;2023-04-26T04:51:08;99619.88;;;9.31;54.52
13869;BME280;7004;48.206;16.402;2023-04-26T04:53:34;99621.13;;;8.95;54.61
13869;BME280;7004;48.206;16.402;2023-04-26T04:56:00;99622.13;;;8.62;54.91
13869;BME280;7004;48.206;16.402;2023-04-26T04:58:26;99626.44;;;8.63;54.83
13869;BME280;7004;48.206;16.402;2023-04-26T05:00:52;99622.59;;;8.85;55.39
13869;BME280;7004;48.206;16.402;2023-04-26T05:03:19;99632.47;;;8.34;55.78
13869;BME280;7004;48.206;16.402;2023-04-26T05:05:45;99627.13;;;8.97;56.45
13869;BME280;7004;48.206;16.402;2023-04-26T05:08:11;99629.63;;;9.14;56.24
13869;BME280;7004;48.206;16.402;2023-04-26T05:10:37;99631.97;;;8.74;56.34
13869;BME280;7004;48.206;16.402;2023-04-26T05:13:03;99635.19;;;8.64;56.70
13869;BME280;7004;48.206;16.402;2023-04-26T05:15:30;99638.69;;;9.25;55.80
13869;BME280;7004;48.206;16.402;2023-04-26T05:17:56;99636.63;;;8.85;57.05
13869;BME280;7004;48.206;16.402;2023-04-26T05:20:24;99644.28;;;8.74;56.53
13869;BME280;7004;48.206;16.402;2023-04-26T05:22:51;99637.06;;;9.67;54.93
13869;BME280;7004;48.206;16.402;2023-04-26T05:25:17;99643.53;;;9.32;56.13
13869;BME280;7004;48.206;16.402;2023-04-26T05:27:43;99646.47;;;9.42;56.68
13869;BME280;7004;48.206;16.402;2023-04-26T05:30:11;99649.38;;;9.37;55.35
13869;BME280;7004;48.206;16.402;2023-04-26T05:32:37;99656.59;;;9.78;54.29
13869;BME280;7004;48.206;16.402;2023-04-26T05:35:04;99651.94;;;9.09;55.81
13869;BME280;7004;48.206;16.402;2023-04-26T05:37:30;99661.72;;;9.07;55.15
13869;BME280;7004;48.206;16.402;2023-04-26T05:39:56;99654.53;;;9.83;53.61
13869;BME280;7004;48.206;16.402;2023-04-26T05:42:22;99660.34;;;9.74;53.09
13869;BME280;7004;48.206;16.402;2023-04-26T05:44:49;99652.50;;;9.58;52.24
13869;BME280;7004;48.206;16.402;2023-04-26T05:47:15;99658.38;;;9.92;52.49
13869;BME280;7004;48.206;16.402;2023-04-26T05:49:41;99656.66;;;10.20;52.65
13869;BME280;7004;48.206;16.402;2023-04-26T05:52:07;99666.44;;;9.46;52.13
13869;BME280;7004;48.206;16.402;2023-04-26T05:54:33;99673.00;;;9.83;51.42
13869;BME280;7004;48.206;16.402;2023-04-26T05:56:59;99668.94;;;10.06;52.07
13869;BME280;7004;48.206;16.402;2023-04-26T05:59:26;99677.03;;;10.03;51.54
13869;BME280;7004;48.206;16.402;2023-04-26T06:01:56;99684.47;;;10.11;50.52
13869;BME280;7004;48.206;16.402;2023-04-26T06:04:22;99684.88;;;10.05;51.68
13869;BME280;7004;48.206;16.402;2023-04-26T06:06:49;99682.69;;;10.26;51.71
13869;BME280;7004;48.206;16.402;2023-04-26T06:09:15;99690.41;;;9.57;51.56
13869;BME280;7004;48.206;16.402;2023-04-26T06:11:41;99692.59;;;9.79;50.66
13869;BME280;7004;48.206;16.402;2023-04-26T06:14:07;99697.06;;;9.49;51.13
13869;BME280;7004;48.206;16.402;2023-04-26T06:16:33;99707.47;;;9.80;50.98
13869;BME280;7004;48.206;16.402;2023-04-26T06:18:59;99702.72;;;9.43;51.50
13869;BME280;7004;48.206;16.402;2023-04-26T06:21:26;99691.06;;;9.61;51.23
13869;BME280;7004;48.206;16.402;2023-04-26T06:23:52;99697.94;;;9.78;51.70
13869;BME280;7004;48.206;16.402;2023-04-26T06:26:18;99704.88;;;10.09;50.67
13869;BME280;7004;48.206;16.402;2023-04-26T06:28:46;99700.41;;;10.24;50.27
13869;BME280;7004;48.206;16.402;2023-04-26T06:31:12;99702.97;;;10.54;49.45
13869;BME280;7004;48.206;16.402;2023-04-26T06:33:39;99714.09;;;10.45;48.83
13869;BME280;7004;48.206;16.402;2023-04-26T06:36:05;99714.19;;;10.00;49.86
13869;BME280;7004;48.206;16.402;2023-04-26T06:38:32;99710.81;;;11.10;48.35
13869;BME280;7004;48.206;16.402;2023-04-26T06:40:58;99704.75;;;11.35;48.01
13869;BME280;7004;48.206;16.402;2023-04-26T06:43:24;99707.28;;;10.55;48.87
13869;BME280;7004;48.206;16.402;2023-04-26T06:45:50;99712.41;;;10.44;48.40
13869;BME280;7004;48.206;16.402;2023-04-26T06:48:16;99713.47;;;11.63;46.91
13869;BME280;7004;48.206;16.402;2023-04-26T06:50:42;99716.97;;;11.23;46.80
13869;BME280;7004;48.206;16.402;2023-04-26T06:53:08;99715.97;;;12.17;45.43
13869;BME280;7004;48.206;16.402;2023-04-26T06:55:34;99715.13;;;12.66;44.15
13869;BME280;7004;48.206;16.402;2023-04-26T06:58:00;99707.56;;;12.73;44.11
13869;BME280;7004;48.206;16.402;2023-04-26T07:00:27;99716.06;;;12.15;44.58
13869;BME280;7004;48.206;16.402;2023-04-26T07:02:53;99714.69;;;11.97;44.32
13869;BME280;7004;48.206;16.402;2023-04-26T07:05:19;99722.75;;;12.58;43.64
13869;BME280;7004;48.206;16.402;2023-04-26T07:07:46;99706.09;;;13.17;43.24
13869;BME280;7004;48.206;16.402;2023-04-26T07:10:12;99700.75;;;11.42;44.65
13869;BME280;7004;48.206;16.402;2023-04-26T07:12:39;99706.66;;;12.61;42.94
13869;BME280;7004;48.206;16.402;2023-04-26T07:15:05;99703.22;;;12.96;42.09
13869;BME280;7004;48.206;16.402;2023-04-26T07:17:32;99706.09;;;12.93;42.45
13869;BME280;7004;48.206;16.402;2023-04-26T07:19:58;99708.88;;;14.08;41.82
13869;BME280;7004;48.206;16.402;2023-04-26T07:22:24;99702.47;;;14.33;38.77
13869;BME280;7004;48.206;16.402;2023-04-26T07:24:50;99713.75;;;11.45;42.71
13869;BME280;7004;48.206;16.402;2023-04-26T07:27:16;99706.38;;;13.01;39.28
13869;BME280;7004;48.206;16.402;2023-04-26T07:29:42;99703.63;;;13.26;38.69
13869;BME280;7004;48.206;16.402;2023-04-26T07:32:09;99703.59;;;13.62;40.13
13869;BME280;7004;48.206;16.402;2023-04-26T07:34:35;99703.31;;;13.42;39.21
13869;BME280;7004;48.206;16.402;2023-04-26T07:37:01;99694.88;;;13.13;38.57
13869;BME280;7004;48.206;16.402;2023-04-26T07:39:27;99712.00;;;14.47;37.59
13869;BME280;7004;48.206;16.402;2023-04-26T07:41:53;99705.50;;;13.48;38.66
13869;BME280;7004;48.206;16.402;2023-04-26T07:44:20;99704.06;;;14.58;37.80
13869;BME280;7004;48.206;16.402;2023-04-26T07:46:46;99703.66;;;14.63;35.87
13869;BME280;7004;48.206;16.402;2023-04-26T07:49:12;99723.16;;;12.28;38.92
13869;BME280;7004;48.206;16.402;2023-04-26T07:51:42;99715.19;;;12.77;38.99
13869;BME280;7004;48.206;16.402;2023-04-26T07:54:08;99721.09;;;12.44;39.58
13869;BME280;7004;48.206;16.402;2023-04-26T07:56:34;99718.16;;;12.97;38.82
13869;BME280;7004;48.206;16.402;2023-04-26T07:59:00;99708.78;;;13.52;39.58
13869;BME280;7004;48.206;16.402;2023-04-26T08:01:26;99711.91;;;12.98;39.26
13869;BME280;7004;48.206;16.402;2023-04-26T08:03:52;99716.88;;;12.78;39.49
13869;BME280;7004;48.206;16.402;2023-04-26T08:06:19;99714.84;;;13.06;40.30
13869;BME280;7004;48.206;16.402;2023-04-26T08:08:45;99711.78;;;12.75;40.04
13869;BME280;7004;48.206;16.402;2023-04-26T08:11:15;99723.63;;;12.58;41.01
13869;BME280;7004;48.206;16.402;2023-04-26T08:13:41;99724.13;;;11.35;41.12
13869;BME280;7004;48.206;16.402;2023-04-26T08:16:11;99739.56;;;12.45;40.23
13869;BME280;7004;48.206;16.402;2023-04-26T08:18:37;99724.59;;;12.44;38.93
13869;BME280;7004;48.206;16.402;2023-04-26T08:21:03;99719.75;;;12.75;40.12
13869;BME280;7004;48.206;16.402;2023-04-26T08:23:33;99723.38;;;12.74;40.45
13869;BME280;7004;48.206;16.402;2023-04-26T08:26:02;99737.03;;;12.31;41.84
13869;BME280;7004;48.206;16.402;2023-04-26T08:28:29;99728.41;;;11.64;42.20
13869;BME280;7004;48.206;16.402;2023-04-26T08:30:55;99724.72;;;11.79;41.67
13869;BME280;7004;48.206;16.402;2023-04-26T08:33:21;99723.16;;;12.15;40.98
13869;BME280;7004;48.206;16.402;2023-04-26T08:35:47;99718.41;;;11.29;41.70
13869;BME280;7004;48.206;16.402;2023-04-26T08:38:13;99731.31;;;11.86;41.08
13869;BME280;7004;48.206;16.402;2023-04-26T08:40:41;99725.44;;;11.15;41.16
13869;BME280;7004;48.206;16.402;2023-04-26T08:43:10;99722.91;;;12.43;39.92
13869;BME280;7004;48.206;16.402;2023-04-26T08:45:40;99730.91;;;11.92;40.28
13869;BME280;7004;48.206;16.402;2023-04-26T08:48:10;99727.91;;;11.84;40.43
13869;BME280;7004;48.206;16.402;2023-04-26T08:50:42;99724.75;;;12.05;41.37
13869;BME280;7004;48.206;16.402;2023-04-26T08:53:14;99726.63;;;12.78;41.59
13869;BME280;7004;48.206;16.402;2023-04-26T08:55:50;99729.47;;;11.61;40.57
13869;BME280;7004;48.206;16.402;2023-04-26T08:58:17;99739.09;;;11.49;41.73
13869;BME280;7004;48.206;16.402;2023-04-26T09:00:44;99739.28;;;11.46;41.56
13869;BME280;7004;48.206;16.402;2023-04-26T09:03:11;99740.03;;;11.48;41.82
13869;BME280;7004;48.206;16.402;2023-04-26T09:05:41;99731.38;;;13.09;39.20
13869;BME280;7004;48.206;16.402;2023-04-26T09:08:17;99743.28;;;13.87;38.07
13869;BME280;7004;48.206;16.402;2023-04-26T09:10:43;99732.72;;;13.15;38.77
13869;BME280;7004;48.206;16.402;2023-04-26T09:13:09;99724.72;;;13.98;38.95
13869;BME280;7004;48.206;16.402;2023-04-26T09:15:36;99728.97;;;12.82;38.14
13869;BME280;7004;48.206;16.402;2023-04-26T09:18:20;99727.31;;;13.17;39.03
13869;BME280;7004;48.206;16.402;2023-04-26T09:21:05;99718.50;;;13.75;36.31
13869;BME280;7004;48.206;16.402;2023-04-26T09:23:32;99713.84;;;14.35;35.46
13869;BME280;7004;48.206;16.402;2023-04-26T09:26:20;99709.03;;;15.27;42.88
13869;BME280;7004;48.206;16.402;2023-04-26T09:28:47;99721.69;;;12.97;36.70
13869;BME280;7004;48.206;16.402;2023-04-26T09:31:37;99727.94;;;12.22;39.17
13869;BME280;7004;48.206;16.402;2023-04-26T09:34:04;99729.75;;;11.96;40.37
13869;BME280;7004;48.206;16.402;2023-04-26T09:36:30;99723.16;;;12.28;45.88
13869;BME280;7004;48.206;16.402;2023-04-26T09:38:57;99724.69;;;12.56;41.55
13869;BME280;7004;48.206;16.402;2023-04-26T09:41:43;99710.09;;;13.22;43.62
13869;BME280;7004;48.206;16.402;2023-04-26T09:44:23;99721.13;;;12.18;41.01
13869;BME280;7004;48.206;16.402;2023-04-26T09:47:08;99711.38;;;13.29;41.84
13869;BME280;7004;48.206;16.402;2023-04-26T09:49:48;99707.03;;;13.86;41.12
13869;BME280;7004;48.206;16.402;2023-04-26T09:52:19;99710.31;;;13.90;37.65
13869;BME280;7004;48.206;16.402;2023-04-26T09:54:48;99699.25;;;16.12;36.66
13869;BME280;7004;48.206;16.402;2023-04-26T09:57:16;99699.63;;;13.56;38.36
13869;BME280;7004;48.206;16.402;2023-04-26T09:59:45;99714.94;;;13.52;39.01
13869;BME280;7004;48.206;16.402;2023-04-26T10:02:25;99710.94;;;12.99;40.17
13869;BME280;7004;48.206;16.402;2023-04-26T10:04:54;99711.19;;;12.72;40.64
13869;BME280;7004;48.206;16.402;2023-04-26T10:07:23;99711.50;;;12.91;40.86
13869;BME280;7004;48.206;16.402;2023-04-26T10:09:49;99701.47;;;14.68;40.53
13869;BME280;7004;48.206;16.402;2023-04-26T10:12:18;99706.81;;;12.34;39.11
13869;BME280;7004;48.206;16.402;2023-04-26T10:14:45;99709.34;;;12.72;40.28
13869;BME280;7004;48.206;16.402;2023-04-26T10:17:12;99713.91;;;12.33;40.49
13869;BME280;7004;48.206;16.402;2023-04-26T10:19:41;99711.44;;;13.52;40.03
13869;BME280;7004;48.206;16.402;2023-04-26T10:22:24;99727.38;;;12.43;41.18
13869;BME280;7004;48.206;16.402;2023-04-26T10:24:52;99721.72;;;12.48;44.10
13869;BME280;7004;48.206;16.402;2023-04-26T10:30:14;99713.63;;;13.69;39.18
13869;BME280;7004;48.206;16.402;2023-04-26T10:35:27;99697.09;;;15.22;38.63
13869;BME280;7004;48.206;16.402;2023-04-26T10:40:37;99691.44;;;15.15;39.60
13869;BME280;7004;48.206;16.402;2023-04-26T10:45:47;99697.03;;;14.35;38.99
13869;BME280;7004;48.206;16.402;2023-04-26T10:48:19;99690.16;;;13.41;39.53
13869;BME280;7004;48.206;16.402;2023-04-26T11:01:34;99679.66;;;13.39;38.67
13869;BME280;7004;48.206;16.402;2023-04-26T11:04:10;99672.97;;;14.59;45.15
13869;BME280;7004;48.206;16.402;2023-04-26T11:06:55;99680.72;;;13.12;39.91
13869;BME280;7004;48.206;16.402;2023-04-26T11:09:39;99696.03;;;13.68;42.52
13869;BME280;7004;48.206;16.402;2023-04-26T11:12:11;99691.28;;;12.53;41.30
13869;BME280;7004;48.206;16.402;2023-04-26T11:14:38;99689.34;;;12.55;43.72
13869;BME280;7004;48.206;16.402;2023-04-26T11:17:08;99687.44;;;12.20;42.54
13869;BME280;7004;48.206;16.402;2023-04-26T11:19:34;99693.38;;;12.11;41.51
13869;BME280;7004;48.206;16.402;2023-04-26T11:22:02;99682.78;;;12.61;40.97
13869;BME280;7004;48.206;16.402;2023-04-26T11:24:32;99669.69;;;12.71;40.34
13869;BME280;7004;48.206;16.402;2023-04-26T11:27:07;99673.41;;;13.16;40.53
13869;BME280;7004;48.206;16.402;2023-04-26T11:29:33;99678.81;;;14.19;36.53
13869;BME280;7004;48.206;16.402;2023-04-26T11:31:59;99672.16;;;13.91;34.53
13869;BME280;7004;48.206;16.402;2023-04-26T11:34:33;99660.47;;;14.82;34.38
13869;BME280;7004;48.206;16.402;2023-04-26T11:37:05;99652.53;;;16.58;33.03
13869;BME280;7004;48.206;16.402;2023-04-26T11:39:32;99643.59;;;17.17;32.91
13869;BME280;7004;48.206;16.402;2023-04-26T11:42:10;99651.78;;;15.54;32.12
13869;BME280;7004;48.206;16.402;2023-04-26T11:44:39;99654.00;;;14.63;33.81
13869;BME280;7004;48.206;16.402;2023-04-26T11:47:06;99642.44;;;14.19;32.61
13869;BME280;7004;48.206;16.402;2023-04-26T11:49:35;99653.53;;;13.68;31.97
13869;BME280;7004;48.206;16.402;2023-04-26T11:52:03;99663.50;;;13.53;33.81
13869;BME280;7004;48.206;16.402;2023-04-26T11:54:36;99669.72;;;13.76;33.22
13869;BME280;7004;48.206;16.402;2023-04-26T11:57:16;99663.09;;;13.93;31.80
13869;BME280;7004;48.206;16.402;2023-04-26T11:59:42;99660.41;;;13.60;32.23
13869;BME280;7004;48.206;16.402;2023-04-26T12:02:08;99651.06;;;15.10;33.57
13869;BME280;7004;48.206;16.402;2023-04-26T12:04:37;99649.41;;;15.61;31.71
13869;BME280;7004;48.206;16.402;2023-04-26T12:07:05;99655.50;;;14.11;31.73
13869;BME280;7004;48.206;16.402;2023-04-26T12:09:32;99649.47;;;14.75;30.94
13869;BME280;7004;48.206;16.402;2023-04-26T12:12:03;99655.34;;;14.35;30.93
13869;BME280;7004;48.206;16.402;2023-04-26T12:14:35;99661.53;;;14.25;31.05
13869;BME280;7004;48.206;16.402;2023-04-26T12:17:04;99652.28;;;15.27;31.78
13869;BME280;7004;48.206;16.402;2023-04-26T12:19:37;99652.16;;;15.28;30.00
13869;BME280;7004;48.206;16.402;2023-04-26T12:22:05;99650.34;;;15.71;29.23
13869;BME280;7004;48.206;16.402;2023-04-26T12:24:32;99636.78;;;16.65;29.36
13869;BME280;7004;48.206;16.402;2023-04-26T12:27:01;99647.75;;;16.21;28.82
13869;BME280;7004;48.206;16.402;2023-04-26T12:29:28;99639.59;;;16.73;30.34
13869;BME280;7004;48.206;16.402;2023-04-26T12:31:57;99644.28;;;15.06;35.23
13869;BME280;7004;48.206;16.402;2023-04-26T12:34:23;99658.63;;;14.16;34.71
13869;BME280;7004;48.206;16.402;2023-04-26T12:36:49;99662.72;;;13.98;35.61
13869;BME280;7004;48.206;16.402;2023-04-26T12:39:16;99657.28;;;14.33;36.16
13869;BME280;7004;48.206;16.402;2023-04-26T12:41:44;99662.00;;;13.27;36.74
13869;BME280;7004;48.206;16.402;2023-04-26T12:44:11;99659.69;;;14.03;37.57
13869;BME280;7004;48.206;16.402;2023-04-26T12:46:37;99673.84;;;12.62;37.08
13869;BME280;7004;48.206;16.402;2023-04-26T12:49:03;99663.66;;;13.63;35.64
13869;BME280;7004;48.206;16.402;2023-04-26T12:51:30;99663.59;;;13.98;35.32
13869;BME280;7004;48.206;16.402;2023-04-26T12:53:59;99649.78;;;14.27;35.51
13869;BME280;7004;48.206;16.402;2023-04-26T12:56:25;99654.84;;;14.41;34.16
13869;BME280;7004;48.206;16.402;2023-04-26T12:58:51;99659.84;;;14.01;35.33
13869;BME280;7004;48.206;16.402;2023-04-26T13:01:18;99643.78;;;15.54;35.65
13869;BME280;7004;48.206;16.402;2023-04-26T13:03:44;99650.03;;;14.90;33.23
13869;BME280;7004;48.206;16.402;2023-04-26T13:06:11;99653.38;;;15.24;35.13
13869;BME280;7004;48.206;16.402;2023-04-26T13:08:37;99647.28;;;15.13;32.71
13869;BME280;7004;48.206;16.402;2023-04-26T13:11:03;99659.47;;;13.94;34.63
13869;BME280;7004;48.206;16.402;2023-04-26T13:13:30;99665.16;;;13.08;34.98
13869;BME280;7004;48.206;16.402;2023-04-26T13:15:56;99656.13;;;13.35;34.69
13869;BME280;7004;48.206;16.402;2023-04-26T13:18:23;99657.28;;;12.95;35.51
13869;BME280;7004;48.206;16.402;2023-04-26T13:20:49;99665.03;;;13.80;35.41
13869;BME280;7004;48.206;16.402;2023-04-26T13:23:16;99658.00;;;13.79;35.72
13869;BME280;7004;48.206;16.402;2023-04-26T13:25:42;99647.63;;;14.32;35.83
13869;BME280;7004;48.206;16.402;2023-04-26T13:28:08;99643.34;;;14.96;36.33
13869;BME280;7004;48.206;16.402;2023-04-26T13:30:34;99655.88;;;14.73;36.34